sensor_id;sensor_type;location;lat;lon;timestamp;P1;durP1;ratioP1;P2;durP2;ratioP2
60714;SDS011;46564;53.096;8.246;2022-09-01T00:00:11;5.07;;;0.90;;
60714;SDS011;46564;53.096;8.246;2022-09-01T00:05:21;1.95;;;0.95;;
60714;SDS011;46564;53.096;8.246;2022-09-01T00:10:23;2.55;;;0.80;;
60714;SDS011;46564;53.096;8.246;2022-09-01T00:15:25;2.30;;;0.77;;
60714;SDS011;46564;53.096;8.246;2022-09-01T00:20:27;2.50;;;1.10;;
60714;SDS011;46564;53.096;8.246;2022-09-01T00:25:29;5.00;;;0.80;;
60714;SDS011;46564;53.096;8.246;2022-09-01T00:30:31;1.55;;;0.93;;
60714;SDS011;46564;53.096;8.246;2022-09-01T00:35:32;1.70;;;0.77;;
60714;SDS011;46564;53.096;8.246;2022-09-01T00:40:37;2.42;;;0.80;;
60714;SDS011;46564;53.096;8.246;2022-09-01T00:45:39;1.33;;;0.93;;
60714;SDS011;46564;53.096;8.246;2022-09-01T00:50:42;3.60;;;1.10;;
60714;SDS011;46564;53.096;8.246;2022-09-01T00:55:49;6.15;;;1.05;;
60714;SDS011;46564;53.096;8.246;2022-09-01T01:00:51;2.13;;;1.00;;
60714;SDS011;46564;53.096;8.246;2022-09-01T01:05:54;2.90;;;1.13;;
60714;SDS011;46564;53.096;8.246;2022-09-01T01:11:02;1.88;;;1.00;;
60714;SDS011;46564;53.096;8.246;2022-09-01T01:16:07;1.52;;;0.98;;
60714;SDS011;46564;53.096;8.246;2022-09-01T01:21:12;2.20;;;1.00;;
60714;SDS011;46564;53.096;8.246;2022-09-01T01:26:39;2.83;;;1.00;;
60714;SDS011;46564;53.096;8.246;2022-09-01T01:31:41;2.50;;;1.33;;
60714;SDS011;46564;53.096;8.246;2022-09-01T01:36:42;2.85;;;1.20;;
60714;SDS011;46564;53.096;8.246;2022-09-01T01:41:47;3.63;;;1.30;;
60714;SDS011;46564;53.096;8.246;2022-09-01T01:46:51;1.40;;;1.08;;
60714;SDS011;46564;53.096;8.246;2022-09-01T01:51:54;1.88;;;1.15;;
60714;SDS011;46564;53.096;8.246;2022-09-01T01:57:02;3.42;;;1.10;;
60714;SDS011;46564;53.096;8.246;2022-09-01T02:02:04;2.97;;;1.13;;
60714;SDS011;46564;53.096;8.246;2022-09-01T02:07:11;1.63;;;1.10;;
60714;SDS011;46564;53.096;8.246;2022-09-01T02:12:13;1.30;;;1.00;;
60714;SDS011;46564;53.096;8.246;2022-09-01T02:17:19;1.40;;;1.00;;
60714;SDS011;46564;53.096;8.246;2022-09-01T02:22:21;3.08;;;1.38;;
60714;SDS011;46564;53.096;8.246;2022-09-01T02:27:23;2.95;;;1.30;;
60714;SDS011;46564;53.096;8.246;2022-09-01T02:32:29;4.72;;;1.30;;
60714;SDS011;46564;53.096;8.246;2022-09-01T02:37:32;6.00;;;3.22;;
60714;SDS011;46564;53.096;8.246;2022-09-01T02:42:34;1.80;;;1.08;;
60714;SDS011;46564;53.096;8.246;2022-09-01T02:47:36;2.30;;;1.20;;
60714;SDS011;46564;53.096;8.246;2022-09-01T02:52:42;1.65;;;1.13;;
60714;SDS011;46564;53.096;8.246;2022-09-01T02:57:45;2.00;;;1.33;;
60714;SDS011;46564;53.096;8.246;2022-09-01T03:02:49;3.13;;;1.42;;
60714;SDS011;46564;53.096;8.246;2022-09-01T03:07:54;4.63;;;1.23;;
60714;SDS011;46564;53.096;8.246;2022-09-01T03:13:01;5.10;;;1.45;;
60714;SDS011;46564;53.096;8.246;2022-09-01T03:18:07;3.22;;;1.30;;
60714;SDS011;46564;53.096;8.246;2022-09-01T03:23:12;2.10;;;1.08;;
60714;SDS011;46564;53.096;8.246;2022-09-01T03:28:20;2.47;;;1.30;;
60714;SDS011;46564;53.096;8.246;2022-09-01T03:33:22;5.40;;;1.35;;
60714;SDS011;46564;53.096;8.246;2022-09-01T03:38:26;2.10;;;1.38;;
60714;SDS011;46564;53.096;8.246;2022-09-01T03:43:32;3.83;;;1.50;;
60714;SDS011;46564;53.096;8.246;2022-09-01T03:48:36;1.67;;;1.30;;
60714;SDS011;46564;53.096;8.246;2022-09-01T03:53:40;3.30;;;1.50;;
60714;SDS011;46564;53.096;8.246;2022-09-01T03:58:42;4.60;;;1.50;;
60714;SDS011;46564;53.096;8.246;2022-09-01T04:03:50;3.92;;;1.70;;
60714;SDS011;46564;53.096;8.246;2022-09-01T04:08:56;2.60;;;1.50;;
60714;SDS011;46564;53.096;8.246;2022-09-01T04:14:05;2.60;;;1.35;;
60714;SDS011;46564;53.096;8.246;2022-09-01T04:19:11;2.40;;;1.50;;
60714;SDS011;46564;53.096;8.246;2022-09-01T04:24:22;3.20;;;1.67;;
60714;SDS011;46564;53.096;8.246;2022-09-01T04:29:25;6.03;;;1.80;;
60714;SDS011;46564;53.096;8.246;2022-09-01T04:34:29;3.63;;;1.80;;
60714;SDS011;46564;53.096;8.246;2022-09-01T04:39:38;4.03;;;1.70;;
60714;SDS011;46564;53.096;8.246;2022-09-01T04:44:40;3.70;;;1.80;;
60714;SDS011;46564;53.096;8.246;2022-09-01T04:49:42;4.78;;;1.92;;
60714;SDS011;46564;53.096;8.246;2022-09-01T04:54:51;2.63;;;1.80;;
60714;SDS011;46564;53.096;8.246;2022-09-01T04:59:55;4.82;;;2.08;;
60714;SDS011;46564;53.096;8.246;2022-09-01T05:05:00;6.07;;;2.53;;
60714;SDS011;46564;53.096;8.246;2022-09-01T05:10:04;4.22;;;2.30;;
60714;SDS011;46564;53.096;8.246;2022-09-01T05:15:20;6.25;;;2.25;;
60714;SDS011;46564;53.096;8.246;2022-09-01T05:20:22;5.07;;;2.80;;
60714;SDS011;46564;53.096;8.246;2022-09-01T05:25:25;7.47;;;2.25;;
60714;SDS011;46564;53.096;8.246;2022-09-01T05:30:28;4.43;;;2.00;;
60714;SDS011;46564;53.096;8.246;2022-09-01T05:35:30;2.70;;;1.50;;
60714;SDS011;46564;53.096;8.246;2022-09-01T05:40:33;4.57;;;1.90;;
60714;SDS011;46564;53.096;8.246;2022-09-01T05:45:41;5.32;;;2.15;;
60714;SDS011;46564;53.096;8.246;2022-09-01T05:51:06;5.22;;;1.90;;
60714;SDS011;46564;53.096;8.246;2022-09-01T05:56:29;5.90;;;1.85;;
60714;SDS011;46564;53.096;8.246;2022-09-01T06:01:31;4.93;;;1.90;;
60714;SDS011;46564;53.096;8.246;2022-09-01T06:06:40;3.17;;;1.88;;
60714;SDS011;46564;53.096;8.246;2022-09-01T06:12:07;10.80;;;2.30;;
60714;SDS011;46564;53.096;8.246;2022-09-01T06:17:18;2.45;;;1.52;;
60714;SDS011;46564;53.096;8.246;2022-09-01T06:22:26;2.05;;;1.50;;
60714;SDS011;46564;53.096;8.246;2022-09-01T06:27:31;4.53;;;1.88;;
60714;SDS011;46564;53.096;8.246;2022-09-01T06:32:33;4.00;;;1.45;;
60714;SDS011;46564;53.096;8.246;2022-09-01T06:37:38;4.82;;;1.52;;
60714;SDS011;46564;53.096;8.246;2022-09-01T06:47:56;5.90;;;1.70;;
60714;SDS011;46564;53.096;8.246;2022-09-01T06:53:01;4.15;;;1.60;;
60714;SDS011;46564;53.096;8.246;2022-09-01T06:58:32;8.10;;;2.22;;
60714;SDS011;46564;53.096;8.246;2022-09-01T07:03:35;4.10;;;1.85;;
60714;SDS011;46564;53.096;8.246;2022-09-01T07:08:48;5.65;;;1.85;;
60714;SDS011;46564;53.096;8.246;2022-09-01T07:14:12;6.30;;;1.80;;
60714;SDS011;46564;53.096;8.246;2022-09-01T07:19:16;4.88;;;1.73;;
60714;SDS011;46564;53.096;8.246;2022-09-01T07:24:33;8.02;;;1.60;;
60714;SDS011;46564;53.096;8.246;2022-09-01T07:29:54;5.57;;;1.65;;
60714;SDS011;46564;53.096;8.246;2022-09-01T07:34:57;4.78;;;1.52;;
60714;SDS011;46564;53.096;8.246;2022-09-01T07:40:06;2.92;;;1.30;;
60714;SDS011;46564;53.096;8.246;2022-09-01T07:45:50;6.30;;;1.40;;
60714;SDS011;46564;53.096;8.246;2022-09-01T07:51:03;10.18;;;1.30;;
60714;SDS011;46564;53.096;8.246;2022-09-01T07:56:25;2.55;;;1.20;;
60714;SDS011;46564;53.096;8.246;2022-09-01T08:01:27;3.33;;;1.30;;
60714;SDS011;46564;53.096;8.246;2022-09-01T08:06:29;1.65;;;1.00;;
60714;SDS011;46564;53.096;8.246;2022-09-01T08:11:41;3.85;;;1.20;;
60714;SDS011;46564;53.096;8.246;2022-09-01T08:17:04;3.45;;;0.90;;
60714;SDS011;46564;53.096;8.246;2022-09-01T08:22:27;3.97;;;0.70;;
60714;SDS011;46564;53.096;8.246;2022-09-01T08:27:34;3.58;;;1.08;;
60714;SDS011;46564;53.096;8.246;2022-09-01T08:32:39;1.02;;;0.70;;
60714;SDS011;46564;53.096;8.246;2022-09-01T08:37:43;1.88;;;0.95;;
60714;SDS011;46564;53.096;8.246;2022-09-01T08:48:27;6.43;;;1.40;;
60714;SDS011;46564;53.096;8.246;2022-09-01T08:54:00;3.45;;;0.93;;
60714;SDS011;46564;53.096;8.246;2022-09-01T08:59:18;2.63;;;0.90;;
60714;SDS011;46564;53.096;8.246;2022-09-01T09:21:17;1.52;;;0.90;;
60714;SDS011;46564;53.096;8.246;2022-09-01T09:26:37;3.67;;;0.82;;
60714;SDS011;46564;53.096;8.246;2022-09-01T09:31:43;4.47;;;0.57;;
60714;SDS011;46564;53.096;8.246;2022-09-01T09:36:51;2.17;;;0.70;;
60714;SDS011;46564;53.096;8.246;2022-09-01T09:42:04;1.33;;;0.60;;
60714;SDS011;46564;53.096;8.246;2022-09-01T09:47:14;1.88;;;0.70;;
60714;SDS011;46564;53.096;8.246;2022-09-01T09:52:44;2.83;;;0.80;;
60714;SDS011;46564;53.096;8.246;2022-09-01T09:57:50;0.75;;;0.60;;
60714;SDS011;46564;53.096;8.246;2022-09-01T10:03:00;2.60;;;0.68;;
60714;SDS011;46564;53.096;8.246;2022-09-01T10:08:12;2.35;;;0.75;;
60714;SDS011;46564;53.096;8.246;2022-09-01T10:13:37;1.13;;;0.63;;
60714;SDS011;46564;53.096;8.246;2022-09-01T10:18:40;5.72;;;0.60;;
60714;SDS011;46564;53.096;8.246;2022-09-01T10:23:45;3.42;;;0.70;;
60714;SDS011;46564;53.096;8.246;2022-09-01T10:34:29;1.10;;;0.50;;
60714;SDS011;46564;53.096;8.246;2022-09-01T10:39:53;1.13;;;0.60;;
60714;SDS011;46564;53.096;8.246;2022-09-01T10:50:38;1.55;;;0.52;;
60714;SDS011;46564;53.096;8.246;2022-09-01T10:55:41;1.88;;;0.63;;
60714;SDS011;46564;53.096;8.246;2022-09-01T11:00:47;4.40;;;0.60;;
60714;SDS011;46564;53.096;8.246;2022-09-01T11:06:10;4.30;;;0.70;;
60714;SDS011;46564;53.096;8.246;2022-09-01T11:17:36;1.08;;;0.50;;
60714;SDS011;46564;53.096;8.246;2022-09-01T11:49:55;2.20;;;0.63;;
60714;SDS011;46564;53.096;8.246;2022-09-01T11:54:57;1.60;;;0.60;;
60714;SDS011;46564;53.096;8.246;2022-09-01T12:00:02;1.70;;;0.60;;
60714;SDS011;46564;53.096;8.246;2022-09-01T12:10:37;2.60;;;0.63;;
60714;SDS011;46564;53.096;8.246;2022-09-01T12:15:40;2.30;;;0.63;;
60714;SDS011;46564;53.096;8.246;2022-09-01T12:21:03;1.60;;;0.80;;
60714;SDS011;46564;53.096;8.246;2022-09-01T12:26:11;2.83;;;0.52;;
60714;SDS011;46564;53.096;8.246;2022-09-01T12:31:16;1.77;;;0.40;;
60714;SDS011;46564;53.096;8.246;2022-09-01T12:36:24;0.80;;;0.50;;
60714;SDS011;46564;53.096;8.246;2022-09-01T12:46:39;2.40;;;0.52;;
60714;SDS011;46564;53.096;8.246;2022-09-01T12:51:45;2.22;;;0.60;;
60714;SDS011;46564;53.096;8.246;2022-09-01T12:56:48;2.38;;;0.50;;
60714;SDS011;46564;53.096;8.246;2022-09-01T13:01:51;1.10;;;0.50;;
60714;SDS011;46564;53.096;8.246;2022-09-01T13:06:54;0.82;;;0.38;;
60714;SDS011;46564;53.096;8.246;2022-09-01T13:12:37;2.03;;;0.90;;
60714;SDS011;46564;53.096;8.246;2022-09-01T13:17:31;1.58;;;0.50;;
60714;SDS011;46564;53.096;8.246;2022-09-01T13:22:33;2.67;;;0.50;;
60714;SDS011;46564;53.096;8.246;2022-09-01T13:27:35;1.08;;;0.50;;
60714;SDS011;46564;53.096;8.246;2022-09-01T13:32:38;2.35;;;0.73;;
60714;SDS011;46564;53.096;8.246;2022-09-01T13:38:00;2.35;;;0.70;;
60714;SDS011;46564;53.096;8.246;2022-09-01T13:43:01;6.53;;;0.60;;
60714;SDS011;46564;53.096;8.246;2022-09-01T13:48:05;8.55;;;0.80;;
60714;SDS011;46564;53.096;8.246;2022-09-01T13:53:16;2.92;;;0.70;;
60714;SDS011;46564;53.096;8.246;2022-09-01T13:58:17;1.80;;;0.63;;
60714;SDS011;46564;53.096;8.246;2022-09-01T14:03:21;0.50;;;0.47;;
60714;SDS011;46564;53.096;8.246;2022-09-01T14:08:23;13.93;;;0.93;;
60714;SDS011;46564;53.096;8.246;2022-09-01T14:13:26;2.30;;;0.50;;
60714;SDS011;46564;53.096;8.246;2022-09-01T14:18:28;3.63;;;0.60;;
60714;SDS011;46564;53.096;8.246;2022-09-01T14:23:37;1.30;;;0.77;;
60714;SDS011;46564;53.096;8.246;2022-09-01T14:28:39;3.65;;;1.00;;
60714;SDS011;46564;53.096;8.246;2022-09-01T14:33:42;3.47;;;0.60;;
60714;SDS011;46564;53.096;8.246;2022-09-01T14:38:45;1.75;;;0.68;;
60714;SDS011;46564;53.096;8.246;2022-09-01T14:43:47;1.92;;;0.82;;
60714;SDS011;46564;53.096;8.246;2022-09-01T14:48:52;1.73;;;0.60;;
60714;SDS011;46564;53.096;8.246;2022-09-01T14:53:54;3.28;;;0.80;;
60714;SDS011;46564;53.096;8.246;2022-09-01T14:58:56;2.45;;;0.82;;
60714;SDS011;46564;53.096;8.246;2022-09-01T15:04:00;4.68;;;0.70;;
60714;SDS011;46564;53.096;8.246;2022-09-01T15:09:02;6.53;;;0.98;;
60714;SDS011;46564;53.096;8.246;2022-09-01T15:14:04;1.80;;;0.85;;
60714;SDS011;46564;53.096;8.246;2022-09-01T15:19:10;1.27;;;0.57;;
60714;SDS011;46564;53.096;8.246;2022-09-01T15:24:13;1.65;;;0.85;;
60714;SDS011;46564;53.096;8.246;2022-09-01T15:29:14;2.95;;;0.70;;
60714;SDS011;46564;53.096;8.246;2022-09-01T15:34:16;2.17;;;0.70;;
60714;SDS011;46564;53.096;8.246;2022-09-01T15:39:19;1.65;;;0.88;;
60714;SDS011;46564;53.096;8.246;2022-09-01T15:44:21;4.47;;;0.77;;
60714;SDS011;46564;53.096;8.246;2022-09-01T15:49:23;2.38;;;0.77;;
60714;SDS011;46564;53.096;8.246;2022-09-01T15:54:24;1.95;;;0.85;;
60714;SDS011;46564;53.096;8.246;2022-09-01T15:59:31;1.63;;;0.77;;
60714;SDS011;46564;53.096;8.246;2022-09-01T16:04:33;1.42;;;0.65;;
60714;SDS011;46564;53.096;8.246;2022-09-01T16:09:35;2.30;;;1.00;;
60714;SDS011;46564;53.096;8.246;2022-09-01T16:14:37;1.15;;;0.60;;
60714;SDS011;46564;53.096;8.246;2022-09-01T16:19:47;1.38;;;0.60;;
60714;SDS011;46564;53.096;8.246;2022-09-01T16:25:10;1.52;;;0.70;;
60714;SDS011;46564;53.096;8.246;2022-09-01T16:30:19;1.23;;;0.60;;
60714;SDS011;46564;53.096;8.246;2022-09-01T16:35:27;1.63;;;0.60;;
60714;SDS011;46564;53.096;8.246;2022-09-01T16:40:46;0.88;;;0.55;;
60714;SDS011;46564;53.096;8.246;2022-09-01T16:51:02;1.52;;;0.28;;
60714;SDS011;46564;53.096;8.246;2022-09-01T16:56:31;2.47;;;0.60;;
60714;SDS011;46564;53.096;8.246;2022-09-01T17:12:19;9.70;;;0.80;;
60714;SDS011;46564;53.096;8.246;2022-09-01T17:22:49;1.40;;;0.60;;
60714;SDS011;46564;53.096;8.246;2022-09-01T17:27:54;2.03;;;0.70;;
60714;SDS011;46564;53.096;8.246;2022-09-01T17:49:49;0.55;;;0.40;;
60714;SDS011;46564;53.096;8.246;2022-09-01T17:55:19;0.63;;;0.55;;
60714;SDS011;46564;53.096;8.246;2022-09-01T18:00:26;1.73;;;0.63;;
60714;SDS011;46564;53.096;8.246;2022-09-01T18:05:39;5.93;;;0.65;;
60714;SDS011;46564;53.096;8.246;2022-09-01T18:15:51;1.58;;;0.60;;
60714;SDS011;46564;53.096;8.246;2022-09-01T18:21:05;2.35;;;0.90;;
60714;SDS011;46564;53.096;8.246;2022-09-01T18:36:40;2.42;;;0.70;;
60714;SDS011;46564;53.096;8.246;2022-09-01T18:42:10;1.60;;;0.80;;
60714;SDS011;46564;53.096;8.246;2022-09-01T18:47:53;3.33;;;0.80;;
60714;SDS011;46564;53.096;8.246;2022-09-01T19:03:47;2.13;;;0.70;;
60714;SDS011;46564;53.096;8.246;2022-09-01T19:19:41;7.32;;;0.90;;
60714;SDS011;46564;53.096;8.246;2022-09-01T19:24:55;4.57;;;0.80;;
60714;SDS011;46564;53.096;8.246;2022-09-01T19:30:21;7.10;;;0.95;;
60714;SDS011;46564;53.096;8.246;2022-09-01T19:35:23;2.45;;;0.60;;
60714;SDS011;46564;53.096;8.246;2022-09-01T19:40:27;3.05;;;1.05;;
60714;SDS011;46564;53.096;8.246;2022-09-01T19:45:39;3.40;;;0.80;;
60714;SDS011;46564;53.096;8.246;2022-09-01T19:51:11;1.25;;;0.70;;
60714;SDS011;46564;53.096;8.246;2022-09-01T19:56:26;1.48;;;0.80;;
60714;SDS011;46564;53.096;8.246;2022-09-01T20:07:27;2.53;;;0.77;;
60714;SDS011;46564;53.096;8.246;2022-09-01T20:18:27;3.65;;;0.82;;
60714;SDS011;46564;53.096;8.246;2022-09-01T20:28:54;2.08;;;0.80;;
60714;SDS011;46564;53.096;8.246;2022-09-01T20:34:12;5.05;;;0.80;;
60714;SDS011;46564;53.096;8.246;2022-09-01T20:50:08;4.38;;;1.05;;
60714;SDS011;46564;53.096;8.246;2022-09-01T20:55:23;1.80;;;0.73;;
60714;SDS011;46564;53.096;8.246;2022-09-01T21:00:29;2.10;;;0.70;;
60714;SDS011;46564;53.096;8.246;2022-09-01T21:05:57;2.25;;;0.98;;
60714;SDS011;46564;53.096;8.246;2022-09-01T21:21:43;4.43;;;1.08;;
60714;SDS011;46564;53.096;8.246;2022-09-01T21:26:53;3.35;;;0.95;;
60714;SDS011;46564;53.096;8.246;2022-09-01T21:31:56;3.67;;;0.80;;
60714;SDS011;46564;53.096;8.246;2022-09-01T21:36:59;3.67;;;1.08;;
60714;SDS011;46564;53.096;8.246;2022-09-01T21:42:01;8.30;;;1.00;;
60714;SDS011;46564;53.096;8.246;2022-09-01T21:47:05;2.67;;;1.02;;
60714;SDS011;46564;53.096;8.246;2022-09-01T21:52:07;4.38;;;0.98;;
60714;SDS011;46564;53.096;8.246;2022-09-01T21:57:09;4.90;;;1.17;;
60714;SDS011;46564;53.096;8.246;2022-09-01T22:02:13;5.25;;;1.25;;
60714;SDS011;46564;53.096;8.246;2022-09-01T22:07:16;2.72;;;1.17;;
60714;SDS011;46564;53.096;8.246;2022-09-01T22:12:19;3.80;;;0.95;;
60714;SDS011;46564;53.096;8.246;2022-09-01T22:17:24;3.47;;;1.20;;
60714;SDS011;46564;53.096;8.246;2022-09-01T22:22:27;2.95;;;0.80;;
60714;SDS011;46564;53.096;8.246;2022-09-01T22:27:29;2.63;;;0.82;;
60714;SDS011;46564;53.096;8.246;2022-09-01T22:32:36;2.97;;;1.25;;
60714;SDS011;46564;53.096;8.246;2022-09-01T22:37:39;1.83;;;1.02;;
60714;SDS011;46564;53.096;8.246;2022-09-01T22:42:45;2.05;;;1.20;;
60714;SDS011;46564;53.096;8.246;2022-09-01T22:47:51;1.35;;;0.77;;
60714;SDS011;46564;53.096;8.246;2022-09-01T22:52:52;2.92;;;0.75;;
60714;SDS011;46564;53.096;8.246;2022-09-01T22:57:55;1.13;;;0.77;;
60714;SDS011;46564;53.096;8.246;2022-09-01T23:02:56;0.90;;;0.60;;
60714;SDS011;46564;53.096;8.246;2022-09-01T23:08:02;2.60;;;0.80;;
60714;SDS011;46564;53.096;8.246;2022-09-01T23:13:04;1.30;;;0.88;;
60714;SDS011;46564;53.096;8.246;2022-09-01T23:18:05;2.08;;;0.75;;
60714;SDS011;46564;53.096;8.246;2022-09-01T23:23:07;2.17;;;0.80;;
60714;SDS011;46564;53.096;8.246;2022-09-01T23:28:09;3.33;;;1.00;;
60714;SDS011;46564;53.096;8.246;2022-09-01T23:33:16;1.63;;;0.75;;
60714;SDS011;46564;53.096;8.246;2022-09-01T23:38:22;2.22;;;0.90;;
60714;SDS011;46564;53.096;8.246;2022-09-01T23:43:25;1.48;;;0.90;;
60714;SDS011;46564;53.096;8.246;2022-09-01T23:48:27;1.98;;;0.85;;
60714;SDS011;46564;53.096;8.246;2022-09-01T23:53:32;1.73;;;0.90;;
